Aérodrome :







RETROUVEZ-NOUS SUR...

 
LOGIN :

S'inscrire | Disclaimer

   EN    FR    IT 

 









Légende :    VFR   VFR Marginal   IFR   IFR Intensif   IFR Très Intensif
Visi : 
Plafond : 
>= 8 km
>= 3000ft
5 à 8 km
1000 à 3000 ft
1500m à 5 km
500 à 1000 ft
800 à 1500m
200 à 500 ft
< 800m
< 200 ft
Symboles :   Orages  Brouillard  Fortes neiges  Fortes précipitations  Vent > 20 kt






- Altitude de l'aérodrome : 357 ft
- Code IATA : YSJ


CYSJ - Saint John

DERNIER METAR :
  • 201100Z 01007KT 4SM BR OVC007 00/M00 A2988 RMK SF8 PRESRR SLP126

METARs EXPIRÉS :
  • 201000Z 04007KT 4SM BR OVC008 00/M01 A2988 RMK SF8 SLP123
  • 200900Z 02007KT 4SM BR BKN008 OVC035 00/M01 A2985 RMK SF6SC2 SLP115

TAF TAF CYSJ
Valide du 20 à 12h jusqu'au 21 à 00h UTC


201138Z 2012/2024 02010KT 2SM -DZ BR OVC006
TEMPO 2012/2014 6SM BR SCT005 OVC012
FM201400 02012G22KT P6SM OVC012
TEMPO 2014/2018 4SM -DZ BR OVC008
FM201800 02012G22KT P6SM BKN015 OVC025
PROB30 2018/2024 1SM -DZ BR OVC004 RMK NXT FCST BY 201800Z



MET'MAP, la Météo Aéronautique d'un coup d'oeil ! - Copyright ORBIFLY Décembre 2007 - Disclaimer

ORBIFLY MET'MAP TEAM :

Programmation & Développement : Alexandra Zaïnal
Conception & Développement : Baudouin d'Aumeries
Co-Programmation & Développement : Marc-Olivier Méhu
Soutien technique & logistique : Manuel Goepfert

Contact : metmap@orbifly.com




SOURCES & CREDITS :

   NOAA